createdAt,value
2023-01-15T00:02:25.857Z,77.86
2023-01-15T00:04:53.307Z,78.12
2023-01-15T00:07:20.895Z,78.54
2023-01-15T00:09:48.436Z,78.24
2023-01-15T00:12:15.785Z,78.47
2023-01-15T00:14:44.464Z,77.93
2023-01-15T00:17:11.846Z,78.41
2023-01-15T00:19:39.203Z,77.71
2023-01-15T00:22:06.596Z,77.28
2023-01-15T00:24:51.359Z,77.35
2023-01-15T00:27:36.171Z,77.45
2023-01-15T00:30:05.633Z,77.17
2023-01-15T00:32:32.997Z,77.22
2023-01-15T00:35:00.921Z,77.74
2023-01-15T00:37:28.371Z,77.67
2023-01-15T00:39:55.767Z,77.73
2023-01-15T00:42:23.147Z,77.50
2023-01-15T00:44:50.566Z,77.49
2023-01-15T00:47:19.255Z,77.82
2023-01-15T00:49:46.644Z,78.23
2023-01-15T00:52:14.065Z,77.97
2023-01-15T00:54:41.429Z,77.93
2023-01-15T00:57:11.304Z,77.88
2023-01-15T00:59:38.670Z,78.44
2023-01-15T01:02:06.178Z,78.52
2023-01-15T01:04:34.958Z,78.64
2023-01-15T01:07:02.345Z,78.26
2023-01-15T01:09:29.704Z,78.80
2023-01-15T01:11:57.113Z,78.17
2023-01-15T01:14:24.805Z,78.19
2023-01-15T01:16:52.322Z,78.78
2023-01-15T01:19:21.470Z,77.85
2023-01-15T01:21:51.681Z,77.97
2023-01-15T01:24:20.909Z,77.79
2023-01-15T01:26:49.407Z,77.86
2023-01-15T01:29:19.686Z,77.89
2023-01-15T01:31:47.655Z,77.60
2023-01-15T01:34:15.417Z,77.03
2023-01-15T01:36:44.506Z,77.38
2023-01-15T01:39:15.952Z,77.53
2023-01-15T01:41:43.598Z,77.20
2023-01-15T01:44:44.391Z,77.35
2023-01-15T01:47:18.652Z,77.46
2023-01-15T01:49:47.882Z,77.91
2023-01-15T01:52:18.957Z,77.75
2023-01-15T01:54:50.444Z,77.73
2023-01-15T01:57:18.846Z,77.56
2023-01-15T01:59:47.005Z,77.74
2023-01-15T02:02:15.141Z,78.55
2023-01-15T02:04:42.884Z,78.38
2023-01-15T02:07:10.297Z,78.65
2023-01-15T02:09:37.701Z,78.66
2023-01-15T02:12:11.718Z,78.73
2023-01-15T02:14:44.808Z,78.71
2023-01-15T02:17:16.346Z,78.85
2023-01-15T02:19:52.704Z,78.89
2023-01-15T02:22:29.201Z,78.98
2023-01-15T02:25:05.551Z,79.07
2023-01-15T02:27:35.206Z,78.96
2023-01-15T02:30:07.810Z,78.94
2023-01-15T02:32:40.560Z,79.12
2023-01-15T02:35:13.805Z,78.94
2023-01-15T02:37:47.508Z,78.89
2023-01-15T02:40:16.557Z,79.04
2023-01-15T02:42:48.405Z,79.10
2023-01-15T02:45:18.566Z,79.29
2023-01-15T02:47:48.435Z,79.55
2023-01-15T02:50:21.108Z,79.26
2023-01-15T02:52:52.795Z,79.79
2023-01-15T02:55:25.553Z,79.99
2023-01-15T02:57:58.222Z,80.26
2023-01-15T03:00:27.431Z,80.45
2023-01-15T03:03:00.206Z,80.23
2023-01-15T03:05:32.134Z,80.34
2023-01-15T03:08:01.845Z,80.28
2023-01-15T03:10:39.980Z,80.31
2023-01-15T03:13:16.753Z,80.41
2023-01-15T03:16:09.506Z,80.34
2023-01-15T03:18:43.334Z,80.15
2023-01-15T03:21:14.435Z,80.47
2023-01-15T03:23:48.229Z,80.70
2023-01-15T03:26:15.716Z,80.76
2023-01-15T03:28:46.407Z,80.72
2023-01-15T03:31:13.825Z,80.34
2023-01-15T03:33:41.527Z,79.99
2023-01-15T03:36:10.743Z,79.11
2023-01-15T03:38:40.427Z,77.99
2023-01-15T03:41:16.636Z,77.21
2023-01-15T03:43:58.878Z,76.36
2023-01-15T03:46:50.014Z,77.08
2023-01-15T03:49:25.960Z,78.15
2023-01-15T03:52:01.529Z,78.74
2023-01-15T03:54:44.788Z,79.30
2023-01-15T03:57:16.530Z,79.50
2023-01-15T03:59:52.477Z,79.93
2023-01-15T04:02:21.654Z,79.88
2023-01-15T04:04:51.570Z,79.86
2023-01-15T04:07:21.039Z,79.90
2023-01-15T04:09:49.393Z,79.77
2023-01-15T04:12:17.126Z,79.25
2023-01-15T04:14:45.962Z,79.51
2023-01-15T04:17:13.365Z,79.32
2023-01-15T04:19:40.807Z,78.90
2023-01-15T04:22:08.154Z,78.91
2023-01-15T04:24:35.551Z,78.83
2023-01-15T04:27:02.925Z,79.13
2023-01-15T04:29:30.379Z,79.02
2023-01-15T04:31:59.073Z,78.81
2023-01-15T04:34:26.940Z,79.62
2023-01-15T04:36:54.474Z,80.11
2023-01-15T04:39:22.301Z,80.68
2023-01-15T04:42:07.482Z,80.25
2023-01-15T04:44:36.258Z,80.06
2023-01-15T04:47:05.017Z,80.73
2023-01-15T04:49:32.455Z,81.69
2023-01-15T04:51:59.923Z,82.65
2023-01-15T04:54:27.448Z,83.23
2023-01-15T04:56:55.628Z,84.16
2023-01-15T04:59:24.762Z,84.11
2023-01-15T05:02:03.266Z,84.33
2023-01-15T05:04:34.939Z,84.69
2023-01-15T05:07:03.039Z,84.91
2023-01-15T05:09:30.330Z,84.94
2023-01-15T05:11:57.915Z,84.86
2023-01-15T05:14:25.328Z,84.95
2023-01-15T05:16:52.709Z,85.04
2023-01-15T05:19:20.157Z,84.79
2023-01-15T05:21:48.854Z,84.81
2023-01-15T05:24:17.990Z,85.04
2023-01-15T05:26:45.675Z,84.83
2023-01-15T05:29:14.135Z,84.24
2023-01-15T05:31:44.991Z,84.10
2023-01-15T05:34:13.076Z,84.30
2023-01-15T05:36:40.468Z,83.98
2023-01-15T05:39:09.617Z,83.91
2023-01-15T05:41:52.674Z,83.97
2023-01-15T05:44:22.738Z,83.84
2023-01-15T05:46:51.643Z,83.78
2023-01-15T05:49:20.384Z,83.25
2023-01-15T05:51:48.604Z,83.21
2023-01-15T05:54:19.498Z,82.83
2023-01-15T05:56:48.581Z,82.74
2023-01-15T05:59:19.437Z,82.54
2023-01-15T06:01:47.063Z,82.52
2023-01-15T06:04:15.309Z,82.27
2023-01-15T06:06:44.058Z,82.32
2023-01-15T06:09:11.706Z,82.08
2023-01-15T06:11:41.267Z,82.30
2023-01-15T06:14:08.872Z,81.93
2023-01-15T06:16:36.284Z,81.62
2023-01-15T06:19:05.813Z,81.31
2023-01-15T06:21:35.233Z,81.05
2023-01-15T06:24:02.830Z,81.39
2023-01-15T06:26:30.601Z,81.70
2023-01-15T06:28:59.368Z,81.32
2023-01-15T06:31:27.920Z,81.27
2023-01-15T06:33:55.890Z,81.21
2023-01-15T06:36:26.034Z,81.28
2023-01-15T06:38:53.571Z,81.50
2023-01-15T06:41:40.740Z,82.50
2023-01-15T06:44:30.256Z,84.40
2023-01-15T06:47:15.158Z,90.20
2023-01-15T06:49:42.609Z,92.41
2023-01-15T06:52:09.967Z,93.79
2023-01-15T06:54:37.391Z,95.82
2023-01-15T06:57:04.911Z,99.58
2023-01-15T06:59:33.680Z,97.33
2023-01-15T07:02:01.778Z,93.65
2023-01-15T07:04:29.057Z,95.23
2023-01-15T07:06:57.092Z,95.56
2023-01-15T07:09:24.428Z,97.53
2023-01-15T07:11:51.846Z,98.08
2023-01-15T07:14:20.663Z,98.05
2023-01-15T07:16:50.128Z,98.06
2023-01-15T07:19:18.589Z,98.68
2023-01-15T07:21:46.681Z,98.07
2023-01-15T07:24:14.611Z,97.02
2023-01-15T07:26:42.608Z,98.16
2023-01-15T07:29:10.215Z,98.87
2023-01-15T07:31:38.094Z,99.11
2023-01-15T07:34:06.773Z,99.51
2023-01-15T07:36:34.159Z,100.00
2023-01-15T07:39:01.550Z,99.21
2023-01-15T07:41:47.272Z,99.54
2023-01-15T07:44:31.846Z,99.06
2023-01-15T07:47:17.092Z,99.32
2023-01-15T07:49:49.271Z,99.45
2023-01-15T07:52:18.100Z,100.00
2023-01-15T07:54:46.229Z,100.00
2023-01-15T07:57:15.994Z,100.00
2023-01-15T07:59:43.422Z,100.00
2023-01-15T08:02:11.988Z,100.00
2023-01-15T08:04:39.602Z,100.00
2023-01-15T08:07:08.973Z,100.00
2023-01-15T08:09:36.861Z,100.00
2023-01-15T08:12:22.674Z,100.00
2023-01-15T08:15:07.918Z,100.00
2023-01-15T08:17:35.679Z,100.00
2023-01-15T08:20:03.385Z,100.00
2023-01-15T08:22:32.332Z,100.00
2023-01-15T08:24:59.783Z,100.00
2023-01-15T08:27:28.881Z,100.00
2023-01-15T08:29:56.811Z,100.00
2023-01-15T08:32:24.994Z,100.00
2023-01-15T08:34:52.437Z,100.00
2023-01-15T08:37:19.901Z,100.00
2023-01-15T08:39:48.864Z,99.77
2023-01-15T08:42:16.259Z,99.83
2023-01-15T08:44:43.601Z,99.73
2023-01-15T08:47:10.944Z,99.63
2023-01-15T08:49:38.933Z,98.28
2023-01-15T08:52:06.440Z,98.20
2023-01-15T08:54:34.008Z,99.00
2023-01-15T08:57:02.738Z,98.57
2023-01-15T08:59:30.207Z,98.23
2023-01-15T09:01:57.712Z,99.21
2023-01-15T09:04:25.273Z,99.32
2023-01-15T09:06:52.746Z,100.00
2023-01-15T09:09:20.416Z,100.00
2023-01-15T09:11:47.832Z,100.00
2023-01-15T09:14:57.478Z,100.00
2023-01-15T09:17:03.969Z,100.00
2023-01-15T09:19:31.416Z,99.89
2023-01-15T09:21:58.799Z,99.52
2023-01-15T09:24:26.152Z,99.29
2023-01-15T09:26:53.832Z,98.84
2023-01-15T09:29:22.511Z,99.84
2023-01-15T09:31:50.396Z,99.35
2023-01-15T09:34:19.413Z,99.86
2023-01-15T09:36:47.226Z,99.63
2023-01-15T09:39:14.704Z,99.63
2023-01-15T09:42:08.350Z,99.48
2023-01-15T09:44:51.056Z,98.82
2023-01-15T09:47:27.186Z,98.97
2023-01-15T09:50:19.181Z,100.00
2023-01-15T09:53:03.269Z,100.00
2023-01-15T09:55:33.341Z,99.81
2023-01-15T09:58:03.042Z,100.00
2023-01-15T10:00:36.859Z,99.65
2023-01-15T10:03:09.024Z,99.47
2023-01-15T10:05:42.419Z,99.54
2023-01-15T10:08:14.869Z,99.23
2023-01-15T10:10:46.577Z,97.73
2023-01-15T10:13:31.951Z,96.95
2023-01-15T10:16:00.952Z,96.05
2023-01-15T10:18:29.711Z,96.32
2023-01-15T10:21:11.704Z,95.84
2023-01-15T10:23:48.217Z,95.32
2023-01-15T10:26:20.691Z,95.27
2023-01-15T10:29:00.687Z,94.82
2023-01-15T10:31:46.255Z,94.91
2023-01-15T10:34:34.729Z,95.55
2023-01-15T10:37:07.920Z,97.81
2023-01-15T10:39:43.778Z,96.11
2023-01-15T10:42:32.837Z,95.62
2023-01-15T10:45:06.832Z,94.57
2023-01-15T10:47:38.495Z,92.93
2023-01-15T10:50:17.620Z,93.78
2023-01-15T10:52:49.915Z,91.97
2023-01-15T10:55:25.107Z,92.41
2023-01-15T10:58:09.247Z,88.81
2023-01-15T11:00:38.018Z,89.33
2023-01-15T11:03:15.065Z,88.48
2023-01-15T11:05:45.624Z,87.91
2023-01-15T11:09:06.775Z,85.67
2023-01-15T11:11:21.613Z,83.84
2023-01-15T11:14:13.932Z,83.38
2023-01-15T11:17:00.736Z,83.03
2023-01-15T11:19:38.150Z,85.46
2023-01-15T11:22:11.105Z,84.20
2023-01-15T11:24:46.001Z,81.52
2023-01-15T11:27:17.270Z,82.74
2023-01-15T11:29:46.053Z,81.56
2023-01-15T11:32:24.424Z,83.05
2023-01-15T11:34:57.408Z,85.21
2023-01-15T11:37:25.029Z,84.22
2023-01-15T11:39:57.140Z,82.21
2023-01-15T11:42:42.510Z,83.61
2023-01-15T11:45:32.989Z,86.08
2023-01-15T11:48:17.692Z,84.43
2023-01-15T11:50:52.989Z,81.92
2023-01-15T11:53:27.473Z,82.25
2023-01-15T11:56:00.834Z,81.63
2023-01-15T11:58:30.222Z,81.97
2023-01-15T12:00:58.840Z,82.34
2023-01-15T12:03:31.182Z,81.79
2023-01-15T12:06:05.267Z,81.28
2023-01-15T12:08:52.235Z,81.34
2023-01-15T12:11:35.981Z,83.06
2023-01-15T12:14:23.002Z,81.85
2023-01-15T12:16:57.486Z,81.81
2023-01-15T12:19:31.435Z,80.04
2023-01-15T12:22:27.665Z,81.53
2023-01-15T12:25:14.538Z,79.54
2023-01-15T12:27:54.854Z,80.25
2023-01-15T12:30:29.801Z,79.97
2023-01-15T12:33:06.864Z,78.12
2023-01-15T12:35:38.753Z,77.21
2023-01-15T12:38:17.114Z,78.23
2023-01-15T12:40:50.456Z,75.38
2023-01-15T12:43:42.348Z,77.24
2023-01-15T12:46:14.340Z,76.33
2023-01-15T12:48:51.251Z,75.46
2023-01-15T12:51:26.273Z,74.73
2023-01-15T12:54:04.114Z,75.27
2023-01-15T12:56:43.070Z,74.35
2023-01-15T12:59:17.971Z,72.82
2023-01-15T13:01:56.957Z,73.97
2023-01-15T13:04:31.285Z,73.66
2023-01-15T13:07:04.486Z,73.18
2023-01-15T13:09:39.493Z,71.57
2023-01-15T13:12:13.222Z,72.69
2023-01-15T13:14:40.589Z,72.89
2023-01-15T13:17:16.389Z,73.64
2023-01-15T13:19:59.229Z,71.67
2023-01-15T13:22:31.269Z,72.73
2023-01-15T13:25:26.790Z,71.00
2023-01-15T13:28:11.612Z,71.72
2023-01-15T13:30:53.814Z,71.95
2023-01-15T13:33:28.633Z,70.74
2023-01-15T13:36:04.117Z,71.23
2023-01-15T13:38:39.571Z,70.71
2023-01-15T13:41:09.729Z,70.23
2023-01-15T13:43:40.135Z,70.92
2023-01-15T13:46:10.003Z,71.36
2023-01-15T13:48:45.318Z,70.94
2023-01-15T13:51:28.182Z,70.47
2023-01-15T13:53:57.078Z,71.67
2023-01-15T13:56:30.954Z,70.65
2023-01-15T13:59:00.168Z,69.91
2023-01-15T14:01:34.394Z,69.45
2023-01-15T14:04:05.247Z,69.78
2023-01-15T14:06:41.300Z,71.56
2023-01-15T14:09:12.040Z,69.06
2023-01-15T14:11:57.609Z,69.05
2023-01-15T14:15:08.289Z,69.84
2023-01-15T14:18:07.185Z,69.55
2023-01-15T14:21:16.965Z,68.80
2023-01-15T14:23:59.524Z,67.70
2023-01-15T14:26:37.547Z,68.46
2023-01-15T14:29:29.397Z,68.87
2023-01-15T14:32:08.797Z,68.02
2023-01-15T14:34:37.041Z,68.23
2023-01-15T14:37:08.131Z,68.42
2023-01-15T14:39:42.522Z,68.17
2023-01-15T14:42:33.715Z,67.73
2023-01-15T14:45:06.255Z,68.06
2023-01-15T14:47:37.559Z,66.71
2023-01-15T14:50:26.368Z,67.35
2023-01-15T14:52:55.513Z,67.59
2023-01-15T14:55:23.441Z,66.89
2023-01-15T14:57:58.341Z,67.36
2023-01-15T15:00:34.686Z,67.21
2023-01-15T15:03:04.504Z,67.51
2023-01-15T15:05:35.096Z,67.09
2023-01-15T15:08:06.304Z,68.65
2023-01-15T15:10:40.588Z,68.55
2023-01-15T15:13:16.628Z,68.81
2023-01-15T15:15:53.155Z,67.55
2023-01-15T15:18:31.807Z,67.58
2023-01-15T15:21:06.498Z,67.01
2023-01-15T15:23:40.646Z,66.58
2023-01-15T15:26:20.446Z,66.09
2023-01-15T15:28:56.769Z,66.20
2023-01-15T15:31:26.405Z,67.44
2023-01-15T15:33:55.915Z,67.39
2023-01-15T15:36:25.250Z,66.54
2023-01-15T15:38:53.659Z,65.72
2023-01-15T15:41:44.277Z,65.06
2023-01-15T15:44:35.490Z,65.55
2023-01-15T15:47:45.059Z,65.39
2023-01-15T15:50:23.120Z,64.32
2023-01-15T15:52:51.386Z,64.98
2023-01-15T15:55:20.829Z,65.42
2023-01-15T15:57:52.033Z,65.37
2023-01-15T16:00:24.666Z,65.36
2023-01-15T16:02:53.551Z,65.95
2023-01-15T16:05:24.604Z,65.36
2023-01-15T16:07:52.988Z,65.96
2023-01-15T16:10:25.667Z,65.22
2023-01-15T16:12:55.299Z,65.37
2023-01-15T16:15:26.949Z,65.72
2023-01-15T16:17:57.199Z,65.66
2023-01-15T16:20:25.957Z,65.42
2023-01-15T16:22:56.911Z,65.86
2023-01-15T16:25:26.442Z,66.21
2023-01-15T16:27:54.162Z,66.50
2023-01-15T16:30:22.070Z,66.11
2023-01-15T16:32:51.143Z,65.66
2023-01-15T16:35:22.534Z,65.94
2023-01-15T16:37:51.976Z,66.02
2023-01-15T16:40:26.661Z,66.53
2023-01-15T16:43:04.961Z,66.03
2023-01-15T16:45:33.358Z,67.03
2023-01-15T16:48:09.790Z,67.37
2023-01-15T16:50:39.577Z,66.49
2023-01-15T16:53:27.669Z,68.09
2023-01-15T16:55:57.058Z,67.55
2023-01-15T16:58:34.883Z,67.56
2023-01-15T17:01:16.820Z,66.78
2023-01-15T17:03:44.481Z,66.62
2023-01-15T17:06:16.085Z,67.21
2023-01-15T17:08:48.868Z,67.32
2023-01-15T17:11:21.899Z,66.14
2023-01-15T17:13:49.475Z,67.51
2023-01-15T17:16:19.547Z,66.13
2023-01-15T17:18:47.832Z,67.17
2023-01-15T17:21:19.420Z,66.43
2023-01-15T17:23:47.237Z,67.63
2023-01-15T17:26:18.795Z,66.95
2023-01-15T17:28:46.889Z,67.73
2023-01-15T17:31:21.022Z,68.24
2023-01-15T17:33:50.598Z,68.35
2023-01-15T17:36:19.963Z,67.77
2023-01-15T17:38:47.530Z,67.80
2023-01-15T17:41:17.135Z,67.55
2023-01-15T17:43:44.519Z,68.13
2023-01-15T17:46:12.252Z,67.45
2023-01-15T17:48:39.994Z,67.01
2023-01-15T17:51:12.084Z,67.15
2023-01-15T17:53:40.989Z,66.95
2023-01-15T17:56:26.585Z,65.46
2023-01-15T17:59:11.428Z,66.42
2023-01-15T18:02:00.260Z,66.38
2023-01-15T18:04:50.682Z,65.84
2023-01-15T18:07:21.729Z,65.83
2023-01-15T18:09:52.978Z,65.74
2023-01-15T18:12:20.840Z,66.56
2023-01-15T18:14:48.212Z,66.18
2023-01-15T18:17:15.597Z,65.83
2023-01-15T18:19:43.252Z,66.46
2023-01-15T18:22:12.605Z,66.38
2023-01-15T18:24:40.326Z,66.60
2023-01-15T18:27:09.032Z,67.15
2023-01-15T18:29:39.897Z,67.38
2023-01-15T18:32:08.428Z,66.34
2023-01-15T18:34:35.867Z,66.69
2023-01-15T18:37:03.286Z,66.33
2023-01-15T18:39:31.029Z,66.21
2023-01-15T18:42:16.659Z,66.01
2023-01-15T18:45:05.376Z,65.66
2023-01-15T18:47:32.844Z,66.44
2023-01-15T18:50:00.191Z,65.34
2023-01-15T18:52:45.200Z,66.33
2023-01-15T18:55:12.540Z,65.88
2023-01-15T18:57:39.967Z,66.46
2023-01-15T19:00:11.585Z,66.64
2023-01-15T19:02:39.099Z,66.49
2023-01-15T19:05:07.211Z,66.02
2023-01-15T19:07:34.468Z,66.31
2023-01-15T19:10:02.026Z,65.85
2023-01-15T19:12:29.401Z,65.91
2023-01-15T19:15:14.369Z,65.64
2023-01-15T19:18:00.980Z,65.96
2023-01-15T19:20:28.408Z,66.11
2023-01-15T19:23:04.050Z,67.59
2023-01-15T19:25:37.986Z,66.07
2023-01-15T19:28:06.096Z,65.64
2023-01-15T19:30:33.881Z,65.44
2023-01-15T19:33:02.605Z,65.63
2023-01-15T19:35:30.023Z,65.17
2023-01-15T19:37:57.666Z,64.91
2023-01-15T19:40:26.288Z,65.40
2023-01-15T19:43:12.849Z,66.76
2023-01-15T19:46:13.687Z,66.04
2023-01-15T19:49:00.141Z,65.99
2023-01-15T19:51:48.605Z,66.74
2023-01-15T19:54:36.277Z,67.48
2023-01-15T19:57:03.650Z,66.38
2023-01-15T19:59:31.786Z,66.53
2023-01-15T20:02:02.232Z,66.04
2023-01-15T20:04:31.178Z,66.06
2023-01-15T20:06:58.568Z,65.84
2023-01-15T20:09:25.961Z,65.81
2023-01-15T20:12:10.798Z,66.19
2023-01-15T20:14:38.175Z,66.02
2023-01-15T20:17:05.519Z,65.90
2023-01-15T20:19:34.252Z,65.70
2023-01-15T20:22:02.088Z,66.55
2023-01-15T20:24:29.438Z,65.72
2023-01-15T20:26:56.936Z,65.67
2023-01-15T20:29:24.328Z,64.88
2023-01-15T20:31:51.727Z,64.85
2023-01-15T20:34:19.176Z,65.79
2023-01-15T20:36:47.994Z,65.41
2023-01-15T20:39:16.173Z,65.50
2023-01-15T20:42:00.840Z,66.17
2023-01-15T20:44:45.880Z,65.65
2023-01-15T20:47:27.473Z,65.80
2023-01-15T20:49:54.830Z,65.51
2023-01-15T20:52:23.562Z,66.01
2023-01-15T20:54:51.114Z,65.22
2023-01-15T20:57:18.666Z,65.17
2023-01-15T20:59:46.019Z,66.12
2023-01-15T21:02:13.565Z,66.18
2023-01-15T21:04:41.010Z,65.75
2023-01-15T21:07:08.372Z,65.15
2023-01-15T21:09:37.125Z,65.79
2023-01-15T21:12:05.069Z,66.46
2023-01-15T21:14:32.595Z,66.54
2023-01-15T21:17:00.086Z,65.67
2023-01-15T21:19:27.582Z,65.54
2023-01-15T21:21:54.959Z,66.42
2023-01-15T21:24:22.346Z,67.07
2023-01-15T21:26:51.035Z,66.70
2023-01-15T21:29:18.468Z,66.75
2023-01-15T21:31:46.215Z,66.39
2023-01-15T21:34:13.952Z,66.33
2023-01-15T21:36:41.334Z,66.62
2023-01-15T21:39:08.700Z,65.62
2023-01-15T21:41:53.676Z,66.04
2023-01-15T21:44:32.211Z,66.78
2023-01-15T22:01:31.975Z,66.76
2023-01-15T22:03:59.372Z,67.18
2023-01-15T22:06:26.807Z,66.30
2023-01-15T22:08:54.828Z,65.61
2023-01-15T22:11:22.147Z,66.13
2023-01-15T22:13:51.028Z,66.74
2023-01-15T22:16:18.991Z,66.91
2023-01-15T22:18:47.691Z,66.29
2023-01-15T22:21:15.495Z,67.03
2023-01-15T22:23:43.943Z,68.01
2023-01-15T22:26:17.714Z,67.66
2023-01-15T22:28:45.225Z,66.79
2023-01-15T22:31:14.480Z,67.37
2023-01-15T22:33:41.908Z,67.82
2023-01-15T22:36:13.003Z,68.51
2023-01-15T22:38:40.702Z,68.63
2023-01-15T22:41:08.082Z,68.20
2023-01-15T22:43:36.159Z,67.92
2023-01-15T22:46:10.205Z,68.31
2023-01-15T22:48:37.640Z,67.82
2023-01-15T22:51:05.895Z,67.97
2023-01-15T22:53:35.972Z,67.86
2023-01-15T22:56:03.566Z,68.28
2023-01-15T22:58:30.908Z,68.55
2023-01-15T23:00:58.723Z,68.30
2023-01-15T23:03:26.120Z,68.01
2023-01-15T23:05:53.486Z,67.89
2023-01-15T23:08:20.858Z,66.77
2023-01-15T23:10:51.096Z,67.46
2023-01-15T23:13:18.508Z,67.38
2023-01-15T23:15:45.889Z,66.51
2023-01-15T23:18:13.266Z,66.70
2023-01-15T23:20:41.218Z,66.40
2023-01-15T23:23:08.486Z,65.80
2023-01-15T23:25:35.825Z,66.52
2023-01-15T23:28:04.711Z,66.01
2023-01-15T23:30:33.112Z,66.11
2023-01-15T23:33:00.612Z,65.27
2023-01-15T23:35:27.978Z,65.81
2023-01-15T23:37:55.345Z,65.64
2023-01-15T23:40:22.674Z,66.07
2023-01-15T23:43:07.442Z,66.79
2023-01-15T23:45:55.511Z,66.24
2023-01-15T23:48:22.857Z,65.19
2023-01-15T23:50:50.251Z,66.22
2023-01-15T23:53:17.632Z,66.86
2023-01-15T23:55:45.013Z,67.00
2023-01-15T23:58:12.435Z,67.62
